createdAt,value
2022-09-07T00:01:21.546Z,15.23
2022-09-07T00:03:21.713Z,15.22
2022-09-07T00:05:21.592Z,15.19
2022-09-07T00:07:21.528Z,15.1
2022-09-07T00:09:21.565Z,15
2022-09-07T00:11:21.526Z,14.91
2022-09-07T00:14:21.675Z,14.99
2022-09-07T00:16:21.769Z,14.94
2022-09-07T00:18:21.691Z,15.03
2022-09-07T00:20:21.721Z,14.98
2022-09-07T00:22:21.657Z,14.95
2022-09-07T00:24:21.702Z,14.91
2022-09-07T00:26:21.671Z,14.94
2022-09-07T00:29:42.667Z,14.9
2022-09-07T00:31:42.696Z,14.85
2022-09-07T00:33:42.637Z,14.85
2022-09-07T00:35:42.634Z,14.91
2022-09-07T00:37:42.683Z,14.89
2022-09-07T00:39:42.727Z,14.79
2022-09-07T00:41:42.641Z,14.78
2022-09-07T00:45:04.922Z,14.71
2022-09-07T00:47:04.964Z,14.59
2022-09-07T00:49:04.903Z,14.55
2022-09-07T00:51:04.919Z,14.57
2022-09-07T00:53:04.917Z,14.55
2022-09-07T00:55:04.892Z,14.51
2022-09-07T00:57:04.889Z,14.55
2022-09-07T00:59:42.341Z,14.55
2022-09-07T01:01:42.477Z,14.44
2022-09-07T01:03:42.415Z,14.43
2022-09-07T01:05:42.369Z,14.47
2022-09-07T01:07:42.350Z,14.45
2022-09-07T01:09:42.390Z,14.48
2022-09-07T01:11:42.321Z,14.5
2022-09-07T01:14:51.906Z,14.51
2022-09-07T01:16:51.888Z,14.44
2022-09-07T01:18:51.902Z,14.35
2022-09-07T01:20:51.898Z,14.33
2022-09-07T01:22:51.906Z,14.42
2022-09-07T01:24:51.901Z,14.4
2022-09-07T01:26:51.922Z,14.35
2022-09-07T01:30:03.828Z,14.35
2022-09-07T01:32:03.804Z,14.41
2022-09-07T01:34:03.771Z,14.35
2022-09-07T01:36:03.780Z,14.33
2022-09-07T01:38:03.828Z,14.33
2022-09-07T01:40:03.867Z,14.26
2022-09-07T01:42:03.818Z,14.31
2022-09-07T01:45:16.001Z,14.26
2022-09-07T01:47:16.006Z,14.23
2022-09-07T01:49:16.055Z,14.09
2022-09-07T01:51:15.998Z,14.22
2022-09-07T01:53:15.999Z,14.23
2022-09-07T01:55:16.022Z,14.15
2022-09-07T01:57:15.979Z,14.15
2022-09-07T02:00:21.796Z,14.08
2022-09-07T02:02:21.819Z,14.05
2022-09-07T02:04:21.770Z,14.03
2022-09-07T02:06:21.767Z,14.01
2022-09-07T02:08:21.804Z,13.99
2022-09-07T02:10:21.756Z,13.88
2022-09-07T02:12:21.765Z,13.79
2022-09-07T02:15:46.517Z,13.81
2022-09-07T02:17:46.495Z,13.84
2022-09-07T02:19:46.463Z,13.89
2022-09-07T02:21:46.468Z,13.94
2022-09-07T02:23:46.477Z,13.93
2022-09-07T02:25:46.455Z,13.94
2022-09-07T02:27:46.502Z,13.91
2022-09-07T02:31:12.817Z,13.87
2022-09-07T02:33:12.718Z,13.84
2022-09-07T02:35:12.714Z,13.78
2022-09-07T02:37:12.695Z,13.75
2022-09-07T02:39:12.684Z,13.69
2022-09-07T02:41:12.691Z,13.64
2022-09-07T02:43:12.698Z,13.67
2022-09-07T02:45:29.743Z,13.72
2022-09-07T02:47:29.760Z,13.71
2022-09-07T02:49:29.779Z,13.61
2022-09-07T02:51:29.761Z,13.57
2022-09-07T02:53:29.740Z,13.66
2022-09-07T02:55:29.785Z,13.67
2022-09-07T02:57:29.737Z,13.59
2022-09-07T02:59:29.728Z,13.42
2022-09-07T03:00:37.282Z,13.47
2022-09-07T03:02:37.282Z,13.54
2022-09-07T03:04:37.204Z,13.55
2022-09-07T03:06:37.232Z,13.6
2022-09-07T03:08:37.200Z,13.64
2022-09-07T03:10:37.351Z,13.68
2022-09-07T03:12:37.195Z,13.67
2022-09-07T03:14:37.194Z,13.63
2022-09-07T03:16:05.892Z,13.57
2022-09-07T03:18:05.738Z,13.57
2022-09-07T03:20:05.751Z,13.54
2022-09-07T03:22:05.787Z,13.43
2022-09-07T03:24:05.778Z,13.44
2022-09-07T03:26:05.781Z,13.35
2022-09-07T03:28:05.747Z,13.31
2022-09-07T03:31:15.527Z,13.47
2022-09-07T03:33:15.408Z,13.42
2022-09-07T03:35:15.412Z,13.44
2022-09-07T03:37:15.426Z,13.41
2022-09-07T03:39:15.466Z,13.41
2022-09-07T03:41:15.409Z,13.4
2022-09-07T03:43:15.409Z,13.44
2022-09-07T03:46:54.686Z,13.34
2022-09-07T03:48:54.603Z,13.36
2022-09-07T03:50:54.653Z,13.36
2022-09-07T03:52:54.619Z,13.35
2022-09-07T03:54:54.626Z,13.34
2022-09-07T03:56:54.665Z,13.31
2022-09-07T03:58:54.610Z,13.27
2022-09-07T04:02:04.429Z,13.28
2022-09-07T04:04:04.376Z,13.28
2022-09-07T04:06:04.357Z,13.28
2022-09-07T04:08:04.517Z,13.32
2022-09-07T04:10:04.354Z,13.43
2022-09-07T04:12:04.387Z,13.49
2022-09-07T04:14:04.358Z,13.55
2022-09-07T04:16:37.339Z,13.52
2022-09-07T04:18:37.332Z,13.45
2022-09-07T04:20:37.288Z,13.51
2022-09-07T04:22:37.304Z,13.61
2022-09-07T04:24:37.248Z,13.64
2022-09-07T04:26:37.312Z,13.75
2022-09-07T04:28:37.256Z,13.85
2022-09-07T04:30:37.274Z,14
2022-09-07T04:32:23.046Z,14.16
2022-09-07T04:34:22.977Z,14.42
2022-09-07T04:36:23.001Z,15.03
2022-09-07T04:38:23.016Z,16.38
2022-09-07T04:40:22.969Z,16.59
2022-09-07T04:42:22.965Z,15.92
2022-09-07T04:44:22.991Z,15.93
2022-09-07T04:47:05.855Z,16.52
2022-09-07T04:49:05.808Z,16.48
2022-09-07T04:51:05.983Z,16.28
2022-09-07T04:53:05.829Z,16.95
2022-09-07T04:55:05.803Z,18.68
2022-09-07T04:57:05.817Z,20.36
2022-09-07T04:59:05.823Z,21.53
2022-09-07T05:02:56.446Z,23.01
2022-09-07T05:04:59.417Z,23.91
2022-09-07T05:06:56.468Z,24.41
2022-09-07T05:08:56.420Z,24.9
2022-09-07T05:10:56.430Z,24.74
2022-09-07T05:12:56.453Z,24.25
2022-09-07T05:14:56.445Z,24.91
2022-09-07T05:18:02.649Z,25.24
2022-09-07T05:20:02.639Z,25.25
2022-09-07T05:22:02.653Z,24.38
2022-09-07T05:24:02.652Z,22.77
2022-09-07T05:26:02.624Z,21.56
2022-09-07T05:28:02.681Z,21.08
2022-09-07T05:30:03.242Z,20.61
2022-09-07T05:32:43.171Z,20.68
2022-09-07T05:34:43.172Z,21.05
2022-09-07T05:36:43.170Z,21.2
2022-09-07T05:38:43.216Z,21.36
2022-09-07T05:40:43.160Z,21.01
2022-09-07T05:42:43.163Z,20.3
2022-09-07T05:47:34.024Z,19.34
2022-09-07T05:49:34.016Z,18.71
2022-09-07T05:51:34.003Z,18.12
2022-09-07T05:53:34.006Z,17.98
2022-09-07T05:55:33.993Z,18.11
2022-09-07T05:57:34.001Z,18.8
2022-09-07T05:59:33.994Z,19.28
2022-09-07T06:01:34.044Z,18.84
2022-09-07T06:02:42.654Z,19.04
2022-09-07T06:04:42.551Z,19.33
2022-09-07T06:06:47.740Z,19.52
2022-09-07T06:08:42.549Z,19.65
2022-09-07T06:12:44.348Z,19.53
2022-09-07T06:14:42.555Z,19.47
2022-09-07T06:16:42.648Z,19.6
2022-09-07T06:18:44.147Z,19.74
2022-09-07T06:20:44.159Z,19.83
2022-09-07T06:22:44.150Z,19.85
2022-09-07T06:24:44.132Z,19.74
2022-09-07T06:26:44.166Z,19.24
2022-09-07T06:28:45.918Z,19.38
2022-09-07T06:30:44.178Z,19.16
2022-09-07T06:33:10.810Z,19.43
2022-09-07T06:35:10.811Z,19.33
2022-09-07T06:37:10.757Z,19.2
2022-09-07T06:39:10.767Z,19.24
2022-09-07T06:43:10.815Z,19.29
2022-09-07T06:45:10.755Z,19.7
2022-09-07T06:48:32.519Z,19.48
2022-09-07T06:50:32.201Z,19.5
2022-09-07T06:55:01.994Z,19.2
2022-09-07T06:56:32.198Z,18.86
2022-09-07T06:58:32.351Z,19.01
2022-09-07T07:00:32.201Z,19.12
2022-09-07T07:03:37.077Z,20.07
2022-09-07T07:05:37.004Z,19.99
2022-09-07T07:07:37.057Z,20.03
2022-09-07T07:09:36.987Z,20.38
2022-09-07T07:11:36.995Z,20.28
2022-09-07T07:13:37.037Z,20.55
2022-09-07T07:15:36.993Z,20.1
2022-09-07T07:18:36.825Z,20.47
2022-09-07T07:20:36.526Z,20.26
2022-09-07T07:22:46.381Z,20.57
2022-09-07T07:24:36.485Z,19.98
2022-09-07T07:26:36.523Z,19.82
2022-09-07T07:30:36.489Z,21.06
2022-09-07T07:32:36.532Z,20.48
2022-09-07T07:34:16.567Z,20.22
2022-09-07T07:36:16.486Z,19.92
2022-09-07T07:40:17.436Z,21.18
2022-09-07T07:42:16.485Z,21.37
2022-09-07T07:44:16.494Z,20.88
2022-09-07T07:46:16.528Z,20.8
2022-09-07T07:48:58.291Z,21.14
2022-09-07T07:50:58.311Z,21.75
2022-09-07T07:54:58.292Z,21.83
2022-09-07T07:56:58.263Z,21.86
2022-09-07T07:58:58.265Z,21.32
2022-09-07T08:00:58.500Z,21.48
2022-09-07T08:02:58.289Z,21.39
2022-09-07T08:04:12.039Z,21.3
2022-09-07T08:06:12.064Z,20.69
2022-09-07T08:08:12.032Z,21.19
2022-09-07T08:10:12.014Z,21.91
2022-09-07T08:12:12.060Z,21.43
2022-09-07T08:14:12.358Z,22.11
2022-09-07T08:16:12.083Z,21.95
2022-09-07T08:19:11.729Z,21.51
2022-09-07T08:21:11.744Z,21.69
2022-09-07T08:23:12.001Z,22.47
2022-09-07T08:25:11.776Z,22.53
2022-09-07T08:27:11.781Z,22.76
2022-09-07T08:29:11.726Z,22.86
2022-09-07T08:31:11.830Z,22.69
2022-09-07T08:33:11.728Z,22.62
2022-09-07T08:34:26.621Z,22.61
2022-09-07T08:36:26.604Z,23.14
2022-09-07T08:38:26.612Z,23.1
2022-09-07T08:40:26.684Z,22.68
2022-09-07T08:42:26.557Z,23.12
2022-09-07T08:44:26.603Z,23.53
2022-09-07T08:46:26.626Z,22.67
2022-09-07T08:48:26.559Z,22.36
2022-09-07T08:49:58.611Z,22.53
2022-09-07T08:51:58.583Z,23.29
2022-09-07T08:53:58.592Z,23.96
2022-09-07T08:55:58.596Z,23.98
2022-09-07T08:57:58.562Z,23.94
2022-09-07T08:59:58.612Z,24.22
2022-09-07T09:02:28.963Z,24.49
2022-09-07T09:05:18.165Z,24.09
2022-09-07T09:07:17.307Z,24.4
2022-09-07T09:09:17.304Z,24.57
2022-09-07T09:11:17.269Z,24.57
2022-09-07T09:13:17.273Z,24.4
2022-09-07T09:15:17.302Z,24.44
2022-09-07T09:17:17.271Z,24.6
2022-09-07T09:19:56.983Z,25.17
2022-09-07T09:21:56.974Z,25.28
2022-09-07T09:23:56.952Z,25.5
2022-09-07T09:25:57.000Z,25.75
2022-09-07T09:27:56.969Z,25.7
2022-09-07T09:29:56.954Z,25.91
2022-09-07T09:31:56.983Z,25.08
2022-09-07T09:33:56.948Z,24.82
2022-09-07T09:35:45.665Z,25.06
2022-09-07T09:37:45.644Z,25.07
2022-09-07T09:39:45.719Z,24.69
2022-09-07T09:41:45.659Z,24.98
2022-09-07T09:43:45.655Z,25.28
2022-09-07T09:47:45.731Z,25.24
2022-09-07T09:52:51.560Z,25.89
2022-09-07T09:54:47.406Z,25.46
2022-09-07T09:56:47.461Z,25.91
2022-09-07T10:05:38.610Z,26.49
2022-09-07T10:07:38.636Z,25.86
2022-09-07T10:09:38.602Z,25.62
2022-09-07T10:13:38.594Z,25.94
2022-09-07T10:15:40.835Z,25.95
2022-09-07T10:17:38.605Z,25.88
2022-09-07T10:21:16.476Z,25.41
2022-09-07T10:23:16.482Z,25.46
2022-09-07T10:25:16.484Z,26.3
2022-09-07T10:27:16.476Z,26.38
2022-09-07T10:29:16.801Z,26.82
2022-09-07T10:31:16.579Z,26.86
2022-09-07T10:33:16.490Z,26.35
2022-09-07T10:36:16.383Z,26.78
2022-09-07T10:38:16.380Z,27.07
2022-09-07T10:40:16.530Z,27.45
2022-09-07T10:42:16.355Z,27.5
2022-09-07T10:44:16.406Z,27.11
2022-09-07T10:46:56.162Z,26.92
2022-09-07T10:48:16.393Z,27.13
2022-09-07T10:51:39.285Z,27.25
2022-09-07T10:53:42.009Z,26.97
2022-09-07T10:55:39.268Z,26.79
2022-09-07T10:57:39.267Z,26.98
2022-09-07T11:00:08.708Z,26.92
2022-09-07T11:01:39.368Z,27.33
2022-09-07T11:03:39.740Z,27.22
2022-09-07T11:06:57.518Z,27.29
2022-09-07T11:10:57.511Z,26.83
2022-09-07T11:12:57.472Z,26.51
2022-09-07T11:14:57.468Z,26.24
2022-09-07T11:16:57.570Z,26.89
2022-09-07T11:19:34.886Z,27.1
2022-09-07T11:22:03.086Z,27.39
2022-09-07T11:23:47.650Z,27.31
2022-09-07T11:25:47.655Z,27.36
2022-09-07T11:27:47.637Z,27.49
2022-09-07T11:29:47.613Z,27.37
2022-09-07T11:31:47.651Z,26.96
2022-09-07T11:34:23.596Z,27.02
2022-09-07T11:37:02.394Z,27.34
2022-09-07T11:39:02.309Z,27.28
2022-09-07T11:41:02.381Z,27.36
2022-09-07T11:43:02.321Z,26.7
2022-09-07T11:45:05.369Z,26.82
2022-09-07T11:47:02.422Z,27.07
2022-09-07T11:49:04.425Z,27.22
2022-09-07T11:52:06.808Z,27.22
2022-09-07T11:54:06.722Z,27.36
2022-09-07T11:56:06.786Z,27.15
2022-09-07T11:58:06.730Z,27.17
2022-09-07T12:00:06.727Z,27.3
2022-09-07T12:02:06.844Z,27.47
2022-09-07T12:04:06.820Z,27.21
2022-09-07T12:06:53.863Z,26.98
2022-09-07T12:08:54.039Z,27.02
2022-09-07T12:10:53.825Z,26.93
2022-09-07T12:12:53.833Z,26.95
2022-09-07T12:14:53.924Z,27.1
2022-09-07T12:16:53.831Z,26.84
2022-09-07T12:18:53.870Z,26.92
2022-09-07T12:22:38.066Z,26.61
2022-09-07T12:24:38.162Z,26.19
2022-09-07T12:26:38.060Z,26.73
2022-09-07T12:28:38.069Z,27.2
2022-09-07T12:30:38.130Z,27.23
2022-09-07T12:32:54.809Z,26.18
2022-09-07T12:34:38.071Z,26.03
2022-09-07T12:37:37.557Z,26.42
2022-09-07T12:39:37.630Z,26.46
2022-09-07T12:41:37.624Z,26.49
2022-09-07T12:43:37.545Z,26.01
2022-09-07T12:45:37.574Z,26.33
2022-09-07T12:47:37.545Z,26.08
2022-09-07T12:49:37.601Z,26.17
2022-09-07T12:52:47.647Z,26.64
2022-09-07T12:54:55.883Z,26.61
2022-09-07T12:57:28.922Z,26.73
2022-09-07T12:58:47.629Z,26.86
2022-09-07T13:00:47.627Z,27.24
2022-09-07T13:02:48.126Z,26.88
2022-09-07T13:04:47.606Z,26.67
2022-09-07T13:07:46.004Z,26.45
2022-09-07T13:09:45.980Z,26.41
2022-09-07T13:11:45.993Z,26.51
2022-09-07T13:14:02.827Z,26.8
2022-09-07T13:15:46.030Z,26.99
2022-09-07T13:17:45.968Z,27.02
2022-09-07T13:19:46.061Z,27.13
2022-09-07T13:22:36.866Z,27.24
2022-09-07T13:24:46.187Z,27.32
2022-09-07T13:26:36.807Z,27.15
2022-09-07T13:28:36.838Z,27.08
2022-09-07T13:30:36.858Z,27.04
2022-09-07T13:34:36.790Z,26.42
2022-09-07T13:36:36.823Z,26.53
2022-09-07T13:38:18.908Z,26.64
2022-09-07T13:40:18.995Z,26.76
2022-09-07T13:42:19.354Z,26.7
2022-09-07T13:44:22.422Z,26.53
2022-09-07T13:46:19.567Z,26.04
2022-09-07T13:48:18.910Z,26.34
2022-09-07T13:50:18.955Z,25.75
2022-09-07T13:53:27.927Z,26.2
2022-09-07T13:55:27.999Z,26.43
2022-09-07T13:57:27.810Z,26.16
2022-09-07T13:59:27.954Z,26
2022-09-07T14:01:27.933Z,26.28
2022-09-07T14:03:27.866Z,26.02
2022-09-07T14:05:27.779Z,26.07
2022-09-07T14:08:31.113Z,26.34
2022-09-07T14:10:31.331Z,26.59
2022-09-07T14:12:31.183Z,26.62
2022-09-07T14:14:31.357Z,26.59
2022-09-07T14:16:31.371Z,26.58
2022-09-07T14:18:31.176Z,26.7
2022-09-07T14:20:31.407Z,26.79
2022-09-07T14:23:09.886Z,26.53
2022-09-07T14:25:09.884Z,26.57
2022-09-07T14:27:09.916Z,26.49
2022-09-07T14:29:09.905Z,26.43
2022-09-07T14:31:10.069Z,26.54
2022-09-07T14:33:10.107Z,26.5
2022-09-07T14:35:10.001Z,26.48
2022-09-07T14:37:09.942Z,26.51
2022-09-07T14:39:07.478Z,26.5
2022-09-07T14:40:52.037Z,26.4
2022-09-07T14:42:51.629Z,26.19
2022-09-07T14:44:51.902Z,26.21
2022-09-07T14:46:55.338Z,26.17
2022-09-07T14:48:51.541Z,26
2022-09-07T14:51:05.603Z,26.03
2022-09-07T14:53:54.975Z,26.07
2022-09-07T14:55:55.071Z,25.86
2022-09-07T14:57:55.235Z,25.77
2022-09-07T14:59:55.047Z,25.8
2022-09-07T15:01:55.056Z,25.7
2022-09-07T15:03:55.051Z,25.59
2022-09-07T15:05:58.914Z,25.55
2022-09-07T15:08:55.004Z,25.38
2022-09-07T15:12:55.019Z,25.1
2022-09-07T15:14:55.383Z,24.97
2022-09-07T15:17:42.388Z,24.85
2022-09-07T15:18:55.004Z,24.72
2022-09-07T15:20:55.014Z,24.6
2022-09-07T15:24:24.278Z,24.47
2022-09-07T15:30:23.604Z,24.06
2022-09-07T15:32:23.758Z,23.91
2022-09-07T15:34:24.604Z,23.8
2022-09-07T15:36:23.594Z,23.65
2022-09-07T15:39:43.746Z,23.42
2022-09-07T15:41:43.187Z,23.34
2022-09-07T15:43:43.180Z,23.24
2022-09-07T15:45:43.256Z,23.19
2022-09-07T15:47:50.499Z,23.18
2022-09-07T15:49:47.630Z,23.12
2022-09-07T15:54:40.525Z,22.93
2022-09-07T15:56:40.496Z,22.88
2022-09-07T15:58:40.747Z,22.75
2022-09-07T16:00:40.585Z,22.6
2022-09-07T16:04:40.933Z,22.42
2022-09-07T16:06:40.869Z,22.38
2022-09-07T16:09:48.115Z,22.23
2022-09-07T16:11:50.025Z,22.09
2022-09-07T16:13:48.231Z,21.98
2022-09-07T16:15:48.116Z,21.74
2022-09-07T16:17:48.777Z,21.61
2022-09-07T16:19:48.031Z,21.62
2022-09-07T16:21:48.088Z,21.54
2022-09-07T16:24:45.191Z,21.39
2022-09-07T16:26:45.652Z,21.29
2022-09-07T16:28:45.001Z,21.16
2022-09-07T16:30:45.016Z,21.04
2022-09-07T16:32:45.294Z,20.88
2022-09-07T16:34:45.075Z,20.8
2022-09-07T16:36:45.061Z,20.76
2022-09-07T16:39:36.482Z,20.64
2022-09-07T16:41:36.453Z,20.64
2022-09-07T16:43:36.754Z,20.64
2022-09-07T16:46:06.225Z,20.65
2022-09-07T16:47:36.471Z,20.47
2022-09-07T16:49:36.445Z,20.43
2022-09-07T16:51:36.447Z,20.48
2022-09-07T16:53:36.477Z,20.29
2022-09-07T16:55:12.968Z,20.27
2022-09-07T16:57:12.986Z,20.27
2022-09-07T16:59:13.185Z,20.32
2022-09-07T17:01:13.032Z,20.21
2022-09-07T17:03:12.956Z,20.18
2022-09-07T17:05:12.978Z,20.13
2022-09-07T17:07:12.956Z,20.01
2022-09-07T17:10:39.499Z,20.13
2022-09-07T17:12:39.487Z,20.08
2022-09-07T17:14:39.471Z,20
2022-09-07T17:16:39.538Z,20.04
2022-09-07T17:20:39.436Z,20.08
2022-09-07T17:22:39.486Z,20.07
2022-09-07T17:25:08.296Z,20.02
2022-09-07T17:27:07.310Z,19.87
2022-09-07T17:29:07.371Z,19.8
2022-09-07T17:31:07.519Z,19.85
2022-09-07T17:33:07.389Z,19.79
2022-09-07T17:35:07.283Z,19.64
2022-09-07T17:37:07.279Z,19.59
2022-09-07T17:39:22.735Z,19.49
2022-09-07T17:41:15.726Z,19.71
2022-09-07T17:45:15.743Z,19.66
2022-09-07T17:47:15.796Z,19.73
2022-09-07T17:49:15.760Z,19.56
2022-09-07T17:51:15.969Z,19.6
2022-09-07T17:53:15.708Z,19.67
2022-09-07T17:55:44.752Z,19.39
2022-09-07T17:57:44.770Z,19.47
2022-09-07T18:00:13.116Z,19.45
2022-09-07T18:01:44.758Z,19.52
2022-09-07T18:03:44.953Z,19.54
2022-09-07T18:05:44.801Z,19.55
2022-09-07T18:07:44.758Z,19.41
2022-09-07T18:13:23.451Z,19.17
2022-09-07T18:15:19.436Z,19.11
2022-09-07T18:17:19.429Z,19.11
2022-09-07T18:19:19.505Z,18.98
2022-09-07T18:21:19.449Z,19.01
2022-09-07T18:23:19.474Z,18.93
2022-09-07T18:26:22.008Z,18.89
2022-09-07T18:30:22.029Z,18.86
2022-09-07T18:32:22.018Z,18.86
2022-09-07T18:34:22.074Z,18.8
2022-09-07T18:36:22.035Z,18.96
2022-09-07T18:38:22.016Z,18.92
2022-09-07T18:41:09.264Z,18.91
2022-09-07T18:43:08.167Z,18.83
2022-09-07T18:47:07.979Z,18.75
2022-09-07T18:49:07.648Z,18.74
2022-09-07T18:51:08.478Z,18.64
2022-09-07T18:53:16.413Z,18.54
2022-09-07T18:57:03.198Z,18.77
2022-09-07T18:59:03.023Z,18.82
2022-09-07T19:01:03.260Z,18.82
2022-09-07T19:03:03.210Z,18.85
2022-09-07T19:07:03.136Z,18.77
2022-09-07T19:09:03.166Z,18.7
2022-09-07T19:11:42.248Z,18.68
2022-09-07T19:13:42.204Z,18.72
2022-09-07T19:15:42.205Z,18.54
2022-09-07T19:17:42.155Z,18.48
2022-09-07T19:19:42.182Z,18.48
2022-09-07T19:21:42.162Z,18.32
2022-09-07T19:23:42.132Z,18.38
2022-09-07T19:26:58.160Z,18.21
2022-09-07T19:28:54.013Z,18.15
2022-09-07T19:30:54.037Z,18.15
2022-09-07T19:32:53.968Z,18.14
2022-09-07T19:34:53.970Z,18.04
2022-09-07T19:36:54.257Z,17.93
2022-09-07T19:38:53.977Z,18.08
2022-09-07T19:41:37.185Z,18.15
2022-09-07T19:43:37.266Z,18.22
2022-09-07T19:45:37.227Z,18.11
2022-09-07T19:47:37.233Z,18.05
2022-09-07T19:49:37.242Z,18.13
2022-09-07T19:51:37.196Z,18.06
2022-09-07T19:53:37.189Z,18.01
2022-09-07T19:55:37.392Z,17.97
2022-09-07T19:56:48.765Z,18.02
2022-09-07T19:58:48.963Z,18.01
2022-09-07T20:00:48.828Z,18.05
2022-09-07T20:02:48.832Z,17.96
2022-09-07T20:04:48.764Z,17.98
2022-09-07T20:06:48.841Z,17.91
2022-09-07T20:08:48.834Z,17.92
2022-09-07T20:10:48.793Z,17.88
2022-09-07T20:12:29.815Z,17.94
2022-09-07T20:14:29.797Z,17.88
2022-09-07T20:16:29.823Z,17.84
2022-09-07T20:18:29.896Z,17.84
2022-09-07T20:20:29.850Z,17.78
2022-09-07T20:22:29.776Z,17.79
2022-09-07T20:24:29.769Z,17.68
2022-09-07T20:27:53.924Z,17.82
2022-09-07T20:29:53.856Z,17.9
2022-09-07T20:31:54.069Z,17.82
2022-09-07T20:33:53.836Z,17.72
2022-09-07T20:35:53.828Z,17.73
2022-09-07T20:37:53.847Z,17.73
2022-09-07T20:39:53.848Z,17.76
2022-09-07T20:42:54.608Z,17.68
2022-09-07T20:44:54.602Z,17.73
2022-09-07T20:46:54.615Z,17.75
2022-09-07T20:48:54.543Z,17.65
2022-09-07T20:50:54.604Z,17.6
2022-09-07T20:52:54.596Z,17.53
2022-09-07T20:54:54.550Z,17.53
2022-09-07T20:58:17.152Z,17.47
2022-09-07T21:00:17.148Z,17.43
2022-09-07T21:02:17.206Z,17.45
2022-09-07T21:04:17.097Z,17.47
2022-09-07T21:06:17.091Z,17.47
2022-09-07T21:08:17.151Z,17.44
2022-09-07T21:10:17.114Z,17.38
2022-09-07T21:12:58.762Z,17.34
2022-09-07T21:14:58.859Z,17.33
2022-09-07T21:16:58.747Z,17.29
2022-09-07T21:18:58.768Z,17.24
2022-09-07T21:21:18.676Z,17.24
2022-09-07T21:22:58.728Z,17.14
2022-09-07T21:24:58.763Z,17.06
2022-09-07T21:27:54.643Z,16.97
2022-09-07T21:29:54.674Z,16.98
2022-09-07T21:31:54.730Z,16.94
2022-09-07T21:33:54.661Z,17
2022-09-07T21:35:54.683Z,17.03
2022-09-07T21:37:54.630Z,17.06
2022-09-07T21:39:54.684Z,16.93
2022-09-07T21:43:27.013Z,16.8
2022-09-07T21:45:26.971Z,16.88
2022-09-07T21:47:26.969Z,16.9
2022-09-07T21:49:27.056Z,16.82
2022-09-07T21:51:27.110Z,16.84
2022-09-07T21:53:26.971Z,16.64
2022-09-07T21:55:26.922Z,16.8
2022-09-07T21:58:11.083Z,16.72
2022-09-07T22:00:11.142Z,16.65
2022-09-07T22:02:11.131Z,16.72
2022-09-07T22:04:11.098Z,16.63
2022-09-07T22:06:11.105Z,16.44
2022-09-07T22:08:11.108Z,16.51
2022-09-07T22:10:11.135Z,16.57
2022-09-07T22:12:11.150Z,16.53
2022-09-07T22:13:35.973Z,16.48
2022-09-07T22:15:36.182Z,16.48
2022-09-07T22:17:35.956Z,16.54
2022-09-07T22:19:36.236Z,16.49
2022-09-07T22:21:35.948Z,16.47
2022-09-07T22:23:35.979Z,16.51
2022-09-07T22:25:35.941Z,16.43
2022-09-07T22:29:06.223Z,16.45
2022-09-07T22:31:06.321Z,16.41
2022-09-07T22:33:06.217Z,16.26
2022-09-07T22:35:06.243Z,16.29
2022-09-07T22:37:06.313Z,16.39
2022-09-07T22:39:06.268Z,16.41
2022-09-07T22:41:06.296Z,16.32
2022-09-07T22:44:17.689Z,16.14
2022-09-07T22:46:17.415Z,16.19
2022-09-07T22:48:17.350Z,16.22
2022-09-07T22:50:17.447Z,16.22
2022-09-07T22:52:17.388Z,16.26
2022-09-07T22:54:17.351Z,16.2
2022-09-07T22:56:17.326Z,16.2
2022-09-07T22:59:13.361Z,16.19
2022-09-07T23:01:13.366Z,16.19
2022-09-07T23:03:13.407Z,16.24
2022-09-07T23:05:13.407Z,16.18
2022-09-07T23:07:13.388Z,16.1
2022-09-07T23:09:13.379Z,16.1
2022-09-07T23:11:13.359Z,16.01
2022-09-07T23:14:26.371Z,16.13
2022-09-07T23:16:26.406Z,15.93
2022-09-07T23:18:26.369Z,15.98
2022-09-07T23:20:26.362Z,15.97
2022-09-07T23:22:26.426Z,15.94
2022-09-07T23:24:26.438Z,15.96
2022-09-07T23:26:26.384Z,15.77
2022-09-07T23:30:01.586Z,15.89
2022-09-07T23:32:04.454Z,15.94
2022-09-07T23:34:01.594Z,15.95
2022-09-07T23:36:01.606Z,15.94
2022-09-07T23:38:01.567Z,15.84
2022-09-07T23:40:01.589Z,15.87
2022-09-07T23:42:01.647Z,15.91
2022-09-07T23:44:33.658Z,15.92
2022-09-07T23:46:33.567Z,15.9
2022-09-07T23:48:33.589Z,15.83
2022-09-07T23:50:33.562Z,15.79
2022-09-07T23:52:33.545Z,15.73
2022-09-07T23:54:33.896Z,15.72
2022-09-07T23:56:33.644Z,15.72
